createdAt,value
2023-05-01T00:00:00.603Z,101540
2023-05-01T00:01:00.566Z,101540
2023-05-01T00:02:00.581Z,101540
2023-05-01T00:03:00.731Z,101530
2023-05-01T00:04:00.752Z,101530
2023-05-01T00:05:01.112Z,101540
2023-05-01T00:06:01.328Z,101530
2023-05-01T00:07:00.540Z,101540
2023-05-01T00:08:00.536Z,101540
2023-05-01T00:09:00.542Z,101540
2023-05-01T00:10:00.625Z,101540
2023-05-01T00:11:04.149Z,101540
2023-05-01T00:12:00.544Z,101540
2023-05-01T00:13:00.559Z,101540
2023-05-01T00:14:00.574Z,101540
2023-05-01T00:15:00.589Z,101540
2023-05-01T00:16:00.599Z,101540
2023-05-01T00:17:00.541Z,101540
2023-05-01T00:18:00.602Z,101540
2023-05-01T00:19:00.524Z,101530
2023-05-01T00:20:00.595Z,101530
2023-05-01T00:21:00.557Z,101530
2023-05-01T00:22:00.575Z,101530
2023-05-01T00:23:00.518Z,101530
2023-05-01T00:24:00.569Z,101530
2023-05-01T00:25:00.574Z,101530
2023-05-01T00:26:00.560Z,101530
2023-05-01T00:27:00.581Z,101530
2023-05-01T00:28:00.541Z,101530
2023-05-01T00:29:00.517Z,101530
2023-05-01T00:30:00.606Z,101530
2023-05-01T00:31:00.598Z,101530
2023-05-01T00:32:00.650Z,101530
2023-05-01T00:33:01.199Z,101530
2023-05-01T00:34:00.737Z,101530
2023-05-01T00:35:00.569Z,101530
2023-05-01T00:36:00.583Z,101530
2023-05-01T00:37:00.591Z,101530
2023-05-01T00:38:00.585Z,101530
2023-05-01T00:39:00.563Z,101530
2023-05-01T00:40:00.613Z,101530
2023-05-01T00:41:00.580Z,101530
2023-05-01T00:42:00.550Z,101530
2023-05-01T00:43:00.503Z,101530
2023-05-01T00:44:00.840Z,101530
2023-05-01T00:45:00.687Z,101520
2023-05-01T00:46:00.730Z,101520
2023-05-01T00:47:00.692Z,101520
2023-05-01T00:48:00.732Z,101520
2023-05-01T00:49:00.617Z,101520
2023-05-01T00:50:01.206Z,101520
2023-05-01T00:51:03.675Z,101520
2023-05-01T00:52:00.601Z,101520
2023-05-01T00:53:01.049Z,101520
2023-05-01T00:54:00.600Z,101510
2023-05-01T00:55:00.709Z,101510
2023-05-01T00:56:00.794Z,101510
2023-05-01T00:57:00.633Z,101510
2023-05-01T00:58:00.595Z,101510
2023-05-01T00:59:00.582Z,101510
2023-05-01T01:00:00.537Z,101510
2023-05-01T01:01:01.012Z,101510
2023-05-01T01:02:00.721Z,101500
2023-05-01T01:03:00.576Z,101500
2023-05-01T01:04:00.602Z,101500
2023-05-01T01:05:00.553Z,101500
2023-05-01T01:06:07.269Z,101500
2023-05-01T01:07:03.990Z,101500
2023-05-01T01:08:03.905Z,101500
2023-05-01T01:09:10.408Z,101490
2023-05-01T01:10:09.786Z,101490
2023-05-01T01:11:10.400Z,101490
2023-05-01T01:12:07.906Z,101490
2023-05-01T01:13:06.272Z,101480
2023-05-01T01:14:10.409Z,101490
2023-05-01T01:15:07.791Z,101490
2023-05-01T01:16:10.432Z,101490
2023-05-01T01:17:08.855Z,101490
2023-05-01T01:18:01.637Z,101490
2023-05-01T01:19:00.566Z,101490
2023-05-01T01:20:09.311Z,101490
2023-05-01T01:21:10.382Z,101490
2023-05-01T01:22:04.653Z,101480
2023-05-01T01:23:10.380Z,101480
2023-05-01T01:24:10.392Z,101480
2023-05-01T01:25:10.401Z,101480
2023-05-01T01:26:03.637Z,101480
2023-05-01T01:27:10.403Z,101470
2023-05-01T01:28:10.402Z,101470
2023-05-01T01:29:10.443Z,101470
2023-05-01T01:30:00.515Z,101470
2023-05-01T01:31:01.670Z,101470
2023-05-01T01:32:10.431Z,101470
2023-05-01T01:33:10.524Z,101470
2023-05-01T01:34:00.508Z,101470
2023-05-01T01:35:02.026Z,101470
2023-05-01T01:36:05.117Z,101470
2023-05-01T01:37:00.534Z,101470
2023-05-01T01:38:04.144Z,101470
2023-05-01T01:39:04.680Z,101470
2023-05-01T01:40:08.253Z,101470
2023-05-01T01:41:10.392Z,101470
2023-05-01T01:42:04.456Z,101470
2023-05-01T01:43:04.309Z,101470
2023-05-01T01:44:04.116Z,101460
2023-05-01T01:45:04.148Z,101470
2023-05-01T01:46:04.179Z,101460
2023-05-01T01:47:03.897Z,101470
2023-05-01T01:48:02.026Z,101470
2023-05-01T01:49:05.456Z,101470
2023-05-01T01:50:02.354Z,101470
2023-05-01T01:51:01.787Z,101460
2023-05-01T01:52:01.430Z,101460
2023-05-01T01:53:01.237Z,101460
2023-05-01T01:54:01.122Z,101460
2023-05-01T01:55:04.100Z,101460
2023-05-01T01:56:03.715Z,101460
2023-05-01T01:57:02.171Z,101450
2023-05-01T01:58:01.337Z,101450
2023-05-01T01:59:00.884Z,101450
2023-05-01T02:00:00.773Z,101450
2023-05-01T02:01:00.816Z,101450
2023-05-01T02:02:01.641Z,101450
2023-05-01T02:03:01.334Z,101450
2023-05-01T02:04:00.914Z,101450
2023-05-01T02:05:00.830Z,101450
2023-05-01T02:06:00.944Z,101450
2023-05-01T02:07:01.678Z,101450
2023-05-01T02:08:01.279Z,101450
2023-05-01T02:09:01.605Z,101450
2023-05-01T02:10:02.295Z,101450
2023-05-01T02:11:02.265Z,101450
2023-05-01T02:12:02.597Z,101450
2023-05-01T02:13:01.524Z,101450
2023-05-01T02:14:00.803Z,101450
2023-05-01T02:15:00.876Z,101450
2023-05-01T02:16:01.641Z,101450
2023-05-01T02:17:01.457Z,101450
2023-05-01T02:18:02.137Z,101450
2023-05-01T02:19:01.672Z,101450
2023-05-01T02:20:01.386Z,101450
2023-05-01T02:21:01.858Z,101450
2023-05-01T02:22:01.425Z,101450
2023-05-01T02:23:02.447Z,101450
2023-05-01T02:24:01.002Z,101450
2023-05-01T02:25:01.913Z,101450
2023-05-01T02:26:02.186Z,101450
2023-05-01T02:27:02.870Z,101450
2023-05-01T02:28:02.878Z,101450
2023-05-01T02:29:00.533Z,101450
2023-05-01T02:30:00.599Z,101450
2023-05-01T02:31:00.561Z,101450
2023-05-01T02:32:00.672Z,101450
2023-05-01T02:33:00.712Z,101450
2023-05-01T02:34:00.590Z,101450
2023-05-01T02:35:00.554Z,101450
2023-05-01T02:36:00.567Z,101450
2023-05-01T02:37:01.083Z,101450
2023-05-01T02:38:00.577Z,101450
2023-05-01T02:39:01.079Z,101450
2023-05-01T02:40:01.575Z,101450
2023-05-01T02:41:00.958Z,101450
2023-05-01T02:42:01.330Z,101450
2023-05-01T02:43:03.937Z,101450
2023-05-01T02:44:01.387Z,101450
2023-05-01T02:45:02.429Z,101460
2023-05-01T02:46:02.131Z,101460
2023-05-01T02:47:01.906Z,101450
2023-05-01T02:48:01.082Z,101460
2023-05-01T02:49:01.706Z,101450
2023-05-01T02:50:00.679Z,101450
2023-05-01T02:51:01.017Z,101450
2023-05-01T02:52:01.230Z,101450
2023-05-01T02:53:00.864Z,101450
2023-05-01T02:54:00.910Z,101450
2023-05-01T02:55:00.866Z,101450
2023-05-01T02:56:01.521Z,101450
2023-05-01T02:57:02.578Z,101450
2023-05-01T02:58:00.572Z,101440
2023-05-01T02:59:00.554Z,101440
2023-05-01T03:00:00.551Z,101440
2023-05-01T03:01:00.586Z,101440
2023-05-01T03:02:00.627Z,101440
2023-05-01T03:03:00.576Z,101440
2023-05-01T03:04:00.643Z,101430
2023-05-01T03:05:00.597Z,101440
2023-05-01T03:06:00.682Z,101430
2023-05-01T03:07:00.527Z,101430
2023-05-01T03:08:00.567Z,101440
2023-05-01T03:09:00.543Z,101440
2023-05-01T03:10:01.464Z,101440
2023-05-01T03:11:03.464Z,101440
2023-05-01T03:12:00.556Z,101440
2023-05-01T03:13:00.573Z,101440
2023-05-01T03:14:00.579Z,101440
2023-05-01T03:15:01.014Z,101440
2023-05-01T03:16:00.905Z,101440
2023-05-01T03:17:00.634Z,101440
2023-05-01T03:18:00.649Z,101440
2023-05-01T03:19:00.534Z,101440
2023-05-01T03:20:00.559Z,101440
2023-05-01T03:21:00.626Z,101440
2023-05-01T03:22:00.570Z,101440
2023-05-01T03:23:00.571Z,101440
2023-05-01T03:24:00.548Z,101440
2023-05-01T03:25:00.589Z,101440
2023-05-01T03:26:00.585Z,101430
2023-05-01T03:27:00.550Z,101440
2023-05-01T03:28:00.591Z,101430
2023-05-01T03:29:00.538Z,101430
2023-05-01T03:30:00.634Z,101430
2023-05-01T03:31:00.639Z,101430
2023-05-01T03:32:00.613Z,101440
2023-05-01T03:33:00.800Z,101430
2023-05-01T03:34:00.552Z,101430
2023-05-01T03:35:00.587Z,101430
2023-05-01T03:36:01.612Z,101430
2023-05-01T03:37:00.510Z,101430
2023-05-01T03:38:00.745Z,101420
2023-05-01T03:39:00.582Z,101420
2023-05-01T03:40:00.569Z,101430
2023-05-01T03:41:00.553Z,101420
2023-05-01T03:42:00.512Z,101420
2023-05-01T03:43:00.557Z,101420
2023-05-01T03:44:00.557Z,101420
2023-05-01T03:45:00.541Z,101420
2023-05-01T03:46:00.591Z,101420
2023-05-01T03:47:00.537Z,101420
2023-05-01T03:48:00.556Z,101420
2023-05-01T03:49:00.580Z,101420
2023-05-01T03:50:00.821Z,101430
2023-05-01T03:51:00.523Z,101430
2023-05-01T03:52:00.548Z,101430
2023-05-01T03:53:00.564Z,101430
2023-05-01T03:54:00.536Z,101430
2023-05-01T03:55:00.554Z,101430
2023-05-01T03:56:00.567Z,101430
2023-05-01T03:57:00.568Z,101420
2023-05-01T03:58:00.520Z,101420
2023-05-01T03:59:00.569Z,101420
2023-05-01T04:00:00.541Z,101420
2023-05-01T04:01:00.557Z,101420
2023-05-01T04:02:00.587Z,101420
2023-05-01T04:03:00.745Z,101420
2023-05-01T04:04:01.057Z,101420
2023-05-01T04:05:00.544Z,101420
2023-05-01T04:06:00.541Z,101420
2023-05-01T04:07:00.623Z,101430
2023-05-01T04:08:00.570Z,101430
2023-05-01T04:09:00.546Z,101430
2023-05-01T04:10:00.546Z,101430
2023-05-01T04:11:00.718Z,101440
2023-05-01T04:12:00.651Z,101440
2023-05-01T04:13:00.560Z,101430
2023-05-01T04:14:00.591Z,101440
2023-05-01T04:15:00.791Z,101440
2023-05-01T04:16:00.605Z,101440
2023-05-01T04:17:00.569Z,101440
2023-05-01T04:18:00.595Z,101440
2023-05-01T04:19:00.543Z,101440
2023-05-01T04:20:00.571Z,101440
2023-05-01T04:21:00.599Z,101440
2023-05-01T04:22:00.567Z,101440
2023-05-01T04:23:00.571Z,101440
2023-05-01T04:24:00.558Z,101440
2023-05-01T04:25:00.604Z,101440
2023-05-01T04:26:00.535Z,101440
2023-05-01T04:27:00.519Z,101450
2023-05-01T04:28:00.535Z,101440
2023-05-01T04:29:00.629Z,101450
2023-05-01T04:30:00.893Z,101450
2023-05-01T04:31:00.673Z,101460
2023-05-01T04:32:00.654Z,101450
2023-05-01T04:33:00.547Z,101460
2023-05-01T04:34:00.666Z,101450
2023-05-01T04:35:00.563Z,101450
2023-05-01T04:36:00.558Z,101460
2023-05-01T04:37:00.566Z,101450
2023-05-01T04:38:00.536Z,101450
2023-05-01T04:39:00.546Z,101450
2023-05-01T04:40:00.550Z,101450
2023-05-01T04:41:00.521Z,101450
2023-05-01T04:42:00.646Z,101450
2023-05-01T04:43:00.550Z,101450
2023-05-01T04:44:00.561Z,101450
2023-05-01T04:45:00.613Z,101450
2023-05-01T04:46:02.033Z,101450
2023-05-01T04:47:01.150Z,101450
2023-05-01T04:48:00.565Z,101450
2023-05-01T04:49:00.556Z,101460
2023-05-01T04:50:00.563Z,101450
2023-05-01T04:51:00.559Z,101450
2023-05-01T04:52:00.534Z,101450
2023-05-01T04:53:00.546Z,101460
2023-05-01T04:54:00.568Z,101450
2023-05-01T04:55:00.553Z,101450
2023-05-01T04:56:00.606Z,101450
2023-05-01T04:57:00.532Z,101450
2023-05-01T04:58:00.498Z,101450
2023-05-01T04:59:00.519Z,101450
2023-05-01T05:00:00.682Z,101450
2023-05-01T05:01:00.522Z,101450
2023-05-01T05:02:00.573Z,101450
2023-05-01T05:03:00.687Z,101450
2023-05-01T05:04:00.821Z,101450
2023-05-01T05:05:00.540Z,101460
2023-05-01T05:06:00.623Z,101460
2023-05-01T05:07:00.643Z,101450
2023-05-01T05:08:00.544Z,101450
2023-05-01T05:09:00.519Z,101460
2023-05-01T05:10:00.538Z,101460
2023-05-01T05:11:00.563Z,101460
2023-05-01T05:12:00.635Z,101460
2023-05-01T05:13:00.553Z,101460
2023-05-01T05:14:00.565Z,101460
2023-05-01T05:15:00.571Z,101460
2023-05-01T05:16:00.688Z,101460
2023-05-01T05:17:00.583Z,101460
2023-05-01T05:18:00.652Z,101460
2023-05-01T05:19:00.574Z,101450
2023-05-01T05:20:00.551Z,101450
2023-05-01T05:21:04.032Z,101460
2023-05-01T05:22:02.021Z,101450
2023-05-01T05:23:00.510Z,101450
2023-05-01T05:24:00.545Z,101460
2023-05-01T05:25:00.557Z,101460
2023-05-01T05:26:00.887Z,101460
2023-05-01T05:27:00.518Z,101460
2023-05-01T05:28:00.570Z,101460
2023-05-01T05:29:00.592Z,101460
2023-05-01T05:30:00.593Z,101460
2023-05-01T05:31:00.564Z,101460
2023-05-01T05:32:00.558Z,101460
2023-05-01T05:33:00.645Z,101460
2023-05-01T05:34:00.521Z,101460
2023-05-01T05:35:00.514Z,101460
2023-05-01T05:36:00.502Z,101460
2023-05-01T05:37:00.540Z,101460
2023-05-01T05:38:00.594Z,101470
2023-05-01T05:39:00.545Z,101470
2023-05-01T05:40:00.597Z,101460
2023-05-01T05:41:00.541Z,101470
2023-05-01T05:42:00.545Z,101470
2023-05-01T05:43:00.530Z,101470
2023-05-01T05:44:00.558Z,101470
2023-05-01T05:45:00.736Z,101470
2023-05-01T05:46:00.610Z,101470
2023-05-01T05:47:00.520Z,101470
2023-05-01T05:48:00.628Z,101460
2023-05-01T05:49:00.529Z,101460
2023-05-01T05:50:00.610Z,101460
2023-05-01T05:51:00.591Z,101470
2023-05-01T05:52:00.568Z,101460
2023-05-01T05:53:00.520Z,101460
2023-05-01T05:54:00.557Z,101460
2023-05-01T05:55:00.552Z,101460
2023-05-01T05:56:00.549Z,101460
2023-05-01T05:57:00.578Z,101470
2023-05-01T05:58:00.554Z,101470
2023-05-01T05:59:00.860Z,101470
2023-05-01T06:00:00.541Z,101470
2023-05-01T06:01:00.521Z,101470
2023-05-01T06:02:00.676Z,101470
2023-05-01T06:03:00.678Z,101470
2023-05-01T06:04:00.516Z,101470
2023-05-01T06:05:00.704Z,101470
2023-05-01T06:06:01.000Z,101480
2023-05-01T06:07:00.718Z,101470
2023-05-01T06:08:00.531Z,101470
2023-05-01T06:09:00.518Z,101470
2023-05-01T06:10:00.580Z,101470
2023-05-01T06:11:00.546Z,101470
2023-05-01T06:12:00.578Z,101470
2023-05-01T06:13:10.432Z,101470
2023-05-01T06:14:00.569Z,101470
2023-05-01T06:15:00.651Z,101470
2023-05-01T06:16:00.612Z,101470
2023-05-01T06:17:00.556Z,101470
2023-05-01T06:18:00.598Z,101470
2023-05-01T06:19:00.537Z,101470
2023-05-01T06:20:00.580Z,101470
2023-05-01T06:21:00.535Z,101470
2023-05-01T06:22:00.612Z,101480
2023-05-01T06:23:00.599Z,101480
2023-05-01T06:24:00.719Z,101480
2023-05-01T06:25:00.556Z,101480
2023-05-01T06:26:00.541Z,101480
2023-05-01T06:27:01.519Z,101470
2023-05-01T06:28:00.608Z,101470
2023-05-01T06:29:00.520Z,101470
2023-05-01T06:30:00.615Z,101460
2023-05-01T06:31:00.664Z,101460
2023-05-01T06:32:00.609Z,101460
2023-05-01T06:33:00.600Z,101470
2023-05-01T06:34:00.613Z,101470
2023-05-01T06:35:00.627Z,101470
2023-05-01T06:36:00.522Z,101470
2023-05-01T06:37:00.559Z,101460
2023-05-01T06:38:00.546Z,101470
2023-05-01T06:39:00.602Z,101470
2023-05-01T06:40:00.714Z,101460
2023-05-01T06:41:00.639Z,101460
2023-05-01T06:42:00.641Z,101460
2023-05-01T06:43:01.505Z,101460
2023-05-01T06:44:00.653Z,101460
2023-05-01T06:45:00.543Z,101460
2023-05-01T06:46:00.658Z,101460
2023-05-01T06:47:00.617Z,101450
2023-05-01T06:48:00.634Z,101460
2023-05-01T06:49:00.562Z,101460
2023-05-01T06:50:02.904Z,101460
2023-05-01T06:51:00.572Z,101460
2023-05-01T06:52:00.635Z,101460
2023-05-01T06:53:00.560Z,101460
2023-05-01T06:54:00.525Z,101460
2023-05-01T06:55:00.534Z,101460
2023-05-01T06:56:00.539Z,101460
2023-05-01T06:57:00.621Z,101470
2023-05-01T06:58:02.684Z,101460
2023-05-01T06:59:00.517Z,101460
2023-05-01T07:00:00.561Z,101460
2023-05-01T07:01:00.610Z,101460
2023-05-01T07:02:00.533Z,101460
2023-05-01T07:03:00.596Z,101460
2023-05-01T07:04:00.584Z,101460
2023-05-01T07:05:00.552Z,101460
2023-05-01T07:06:00.608Z,101460
2023-05-01T07:07:00.569Z,101460
2023-05-01T07:08:01.787Z,101460
2023-05-01T07:09:00.578Z,101460
2023-05-01T07:10:00.786Z,101460
2023-05-01T07:11:00.654Z,101460
2023-05-01T07:12:00.709Z,101460
2023-05-01T07:13:00.549Z,101460
2023-05-01T07:14:00.499Z,101460
2023-05-01T07:15:00.561Z,101460
2023-05-01T07:16:00.578Z,101460
2023-05-01T07:17:01.421Z,101460
2023-05-01T07:18:00.573Z,101460
2023-05-01T07:19:00.611Z,101460
2023-05-01T07:20:00.635Z,101460
2023-05-01T07:21:00.538Z,101460
2023-05-01T07:22:00.580Z,101460
2023-05-01T07:23:00.525Z,101460
2023-05-01T07:24:00.528Z,101460
2023-05-01T07:25:00.525Z,101460
2023-05-01T07:26:00.533Z,101460
2023-05-01T07:27:00.535Z,101460
2023-05-01T07:28:00.579Z,101460
2023-05-01T07:29:00.546Z,101460
2023-05-01T07:30:01.826Z,101460
2023-05-01T07:31:00.509Z,101460
2023-05-01T07:32:00.608Z,101460
2023-05-01T07:33:00.684Z,101460
2023-05-01T07:34:00.537Z,101460
2023-05-01T07:35:00.552Z,101460
2023-05-01T07:36:00.517Z,101460
2023-05-01T07:37:00.564Z,101460
2023-05-01T07:38:00.519Z,101460
2023-05-01T07:39:00.603Z,101460
2023-05-01T07:40:00.577Z,101460
2023-05-01T07:41:00.699Z,101470
2023-05-01T07:42:00.530Z,101470
2023-05-01T07:43:00.563Z,101470
2023-05-01T07:44:00.532Z,101470
2023-05-01T07:45:00.629Z,101470
2023-05-01T07:46:00.727Z,101470
2023-05-01T07:47:02.206Z,101470
2023-05-01T07:48:00.616Z,101470
2023-05-01T07:49:00.562Z,101470
2023-05-01T07:50:00.556Z,101460
2023-05-01T07:51:00.854Z,101460
2023-05-01T07:52:00.609Z,101460
2023-05-01T07:53:00.572Z,101460
2023-05-01T07:54:00.541Z,101460
2023-05-01T07:55:00.606Z,101460
2023-05-01T07:56:08.008Z,101460
2023-05-01T07:57:00.569Z,101450
2023-05-01T07:58:00.524Z,101460
2023-05-01T07:59:00.561Z,101450
2023-05-01T08:00:00.590Z,101450
2023-05-01T08:01:00.695Z,101450
2023-05-01T08:02:00.623Z,101450
2023-05-01T08:03:01.075Z,101460
2023-05-01T08:04:00.662Z,101460
2023-05-01T08:05:00.878Z,101460
2023-05-01T08:06:00.588Z,101460
2023-05-01T08:07:00.531Z,101460
2023-05-01T08:08:00.537Z,101450
2023-05-01T08:09:00.523Z,101460
2023-05-01T08:10:01.064Z,101460
2023-05-01T08:11:00.560Z,101460
2023-05-01T08:12:00.596Z,101460
2023-05-01T08:13:00.557Z,101460
2023-05-01T08:14:00.609Z,101460
2023-05-01T08:15:00.826Z,101460
2023-05-01T08:16:01.156Z,101460
2023-05-01T08:17:00.573Z,101450
2023-05-01T08:18:00.601Z,101450
2023-05-01T08:19:00.612Z,101450
2023-05-01T08:20:00.888Z,101450
2023-05-01T08:21:00.580Z,101450
2023-05-01T08:22:00.537Z,101450
2023-05-01T08:23:00.560Z,101450
2023-05-01T08:24:00.541Z,101450
2023-05-01T08:25:00.611Z,101450
2023-05-01T08:26:00.552Z,101440
2023-05-01T08:27:00.551Z,101450
2023-05-01T08:28:00.587Z,101450
2023-05-01T08:29:00.581Z,101450
2023-05-01T08:30:00.562Z,101450
2023-05-01T08:31:00.594Z,101450
2023-05-01T08:32:00.778Z,101460
2023-05-01T08:33:00.555Z,101450
2023-05-01T08:34:00.554Z,101450
2023-05-01T08:35:00.582Z,101450
2023-05-01T08:36:00.599Z,101450
2023-05-01T08:37:00.729Z,101460
2023-05-01T08:38:00.566Z,101450
2023-05-01T08:39:00.587Z,101450
2023-05-01T08:40:00.544Z,101450
2023-05-01T08:41:00.611Z,101450
2023-05-01T08:42:01.725Z,101450
2023-05-01T08:43:00.570Z,101450
2023-05-01T08:44:00.820Z,101450
2023-05-01T08:45:01.285Z,101440
2023-05-01T08:46:00.750Z,101450
2023-05-01T08:47:10.587Z,101450
2023-05-01T08:48:03.765Z,101450
2023-05-01T08:49:03.756Z,101450
2023-05-01T08:50:00.615Z,101450
2023-05-01T08:51:02.502Z,101450
2023-05-01T08:52:01.128Z,101450
2023-05-01T08:53:01.173Z,101460
2023-05-01T08:54:00.897Z,101450
2023-05-01T08:55:01.196Z,101450
2023-05-01T08:56:04.852Z,101450
2023-05-01T08:57:01.221Z,101460
2023-05-01T08:58:01.063Z,101460
2023-05-01T08:59:02.772Z,101460
2023-05-01T09:00:00.549Z,101460
2023-05-01T09:01:00.898Z,101450
2023-05-01T09:02:01.133Z,101460
2023-05-01T09:03:00.786Z,101460
2023-05-01T09:04:01.596Z,101460
2023-05-01T09:05:01.264Z,101450
2023-05-01T09:06:01.614Z,101450
2023-05-01T09:07:00.752Z,101460
2023-05-01T09:08:00.557Z,101450
2023-05-01T09:09:00.751Z,101450
2023-05-01T09:10:00.696Z,101450
2023-05-01T09:11:02.291Z,101460
2023-05-01T09:12:10.426Z,101450
2023-05-01T09:13:01.081Z,101460
2023-05-01T09:14:00.562Z,101460
2023-05-01T09:15:01.825Z,101460
2023-05-01T09:16:00.635Z,101460
2023-05-01T09:17:00.640Z,101450
2023-05-01T09:18:03.187Z,101460
2023-05-01T09:19:00.565Z,101460
2023-05-01T09:20:01.303Z,101470
2023-05-01T09:21:00.985Z,101460
2023-05-01T09:22:00.584Z,101460
2023-05-01T09:23:00.578Z,101460
2023-05-01T09:24:00.533Z,101460
2023-05-01T09:25:00.733Z,101460
2023-05-01T09:26:03.578Z,101460
2023-05-01T09:27:00.551Z,101470
2023-05-01T09:28:03.189Z,101470
2023-05-01T09:29:00.591Z,101470
2023-05-01T09:30:00.776Z,101460
2023-05-01T09:31:10.408Z,101460
2023-05-01T09:32:10.445Z,101460
2023-05-01T09:33:08.000Z,101460
2023-05-01T09:34:01.643Z,101460
2023-05-01T09:35:09.191Z,101460
2023-05-01T09:36:00.582Z,101460
2023-05-01T09:37:00.613Z,101470
2023-05-01T09:38:00.566Z,101460
2023-05-01T09:39:00.839Z,101470
2023-05-01T09:40:10.425Z,101470
2023-05-01T09:41:04.179Z,101470
2023-05-01T09:42:00.744Z,101470
2023-05-01T09:43:00.615Z,101470
2023-05-01T09:44:00.672Z,101470
2023-05-01T09:45:01.950Z,101470
2023-05-01T09:46:00.597Z,101470
2023-05-01T09:47:00.787Z,101470
2023-05-01T09:48:08.497Z,101470
2023-05-01T09:49:01.048Z,101470
2023-05-01T09:50:00.573Z,101470
2023-05-01T09:51:00.827Z,101470
2023-05-01T09:52:10.422Z,101480
2023-05-01T09:53:00.966Z,101470
2023-05-01T09:54:02.581Z,101470
2023-05-01T09:55:10.427Z,101470
2023-05-01T09:56:00.541Z,101470
2023-05-01T09:57:00.554Z,101470
2023-05-01T09:58:00.828Z,101480
2023-05-01T09:59:10.412Z,101470
2023-05-01T10:00:01.161Z,101470
2023-05-01T10:01:00.584Z,101470
2023-05-01T10:02:00.617Z,101470
2023-05-01T10:03:10.478Z,101470
2023-05-01T10:04:00.646Z,101470
2023-05-01T10:05:00.949Z,101470
2023-05-01T10:06:00.590Z,101480
2023-05-01T10:07:10.426Z,101470
2023-05-01T10:08:01.248Z,101470
2023-05-01T10:09:00.519Z,101470
2023-05-01T10:10:10.441Z,101480
2023-05-01T10:11:02.319Z,101480
2023-05-01T10:12:00.526Z,101480
2023-05-01T10:13:10.412Z,101480
2023-05-01T10:14:08.494Z,101480
2023-05-01T10:15:05.492Z,101480
2023-05-01T10:16:00.534Z,101490
2023-05-01T10:17:06.310Z,101480
2023-05-01T10:18:00.672Z,101480
2023-05-01T10:19:02.361Z,101480
2023-05-01T10:20:00.585Z,101480
2023-05-01T10:21:00.586Z,101480
2023-05-01T10:22:00.533Z,101480
2023-05-01T10:23:01.770Z,101480
2023-05-01T10:24:01.337Z,101480
2023-05-01T10:25:00.848Z,101480
2023-05-01T10:26:02.981Z,101480
2023-05-01T10:27:00.891Z,101480
2023-05-01T10:28:02.298Z,101490
2023-05-01T10:29:00.944Z,101490
2023-05-01T10:30:01.687Z,101490
2023-05-01T10:31:01.815Z,101490
2023-05-01T10:32:01.729Z,101490
2023-05-01T10:33:01.317Z,101490
2023-05-01T10:34:00.853Z,101490
2023-05-01T10:35:04.445Z,101490
2023-05-01T10:36:01.795Z,101500
2023-05-01T10:37:03.166Z,101490
2023-05-01T10:38:01.530Z,101490
2023-05-01T10:39:00.553Z,101490
2023-05-01T10:40:10.431Z,101490
2023-05-01T10:41:00.532Z,101480
2023-05-01T10:42:01.270Z,101490
2023-05-01T10:43:10.432Z,101490
2023-05-01T10:44:10.421Z,101480
2023-05-01T10:45:10.421Z,101480
2023-05-01T10:46:07.994Z,101490
2023-05-01T10:47:10.432Z,101490
2023-05-01T10:48:00.599Z,101490
2023-05-01T10:49:00.521Z,101500
2023-05-01T10:50:09.361Z,101490
2023-05-01T10:51:06.244Z,101490
2023-05-01T10:52:00.821Z,101490
2023-05-01T10:53:10.422Z,101490
2023-05-01T10:54:10.402Z,101490
2023-05-01T10:55:10.413Z,101500
2023-05-01T10:56:00.667Z,101490
2023-05-01T10:57:01.349Z,101500
2023-05-01T10:58:00.533Z,101500
2023-05-01T10:59:01.476Z,101500
2023-05-01T11:00:00.544Z,101490
2023-05-01T11:01:10.384Z,101500
2023-05-01T11:02:10.509Z,101500
2023-05-01T11:03:10.415Z,101500
2023-05-01T11:04:03.612Z,101500
2023-05-01T11:05:00.887Z,101500
2023-05-01T11:06:01.060Z,101500
2023-05-01T11:07:00.639Z,101490
2023-05-01T11:08:10.397Z,101500
2023-05-01T11:09:00.915Z,101490
2023-05-01T11:10:00.556Z,101490
2023-05-01T11:11:10.403Z,101490
2023-05-01T11:12:00.574Z,101490
2023-05-01T11:13:00.545Z,101490
2023-05-01T11:14:04.311Z,101490
2023-05-01T11:15:00.971Z,101490
2023-05-01T11:16:10.609Z,101490
2023-05-01T11:17:00.531Z,101480
2023-05-01T11:18:01.146Z,101480
2023-05-01T11:19:00.567Z,101490
2023-05-01T11:20:00.574Z,101490
2023-05-01T11:21:00.624Z,101480
2023-05-01T11:22:00.706Z,101490
2023-05-01T11:23:00.548Z,101490
2023-05-01T11:24:00.685Z,101490
2023-05-01T11:25:00.968Z,101490
2023-05-01T11:26:01.337Z,101490
2023-05-01T11:27:00.815Z,101490
2023-05-01T11:28:01.313Z,101490
2023-05-01T11:29:00.645Z,101490
2023-05-01T11:30:00.608Z,101490
2023-05-01T11:31:00.600Z,101490
2023-05-01T11:32:00.589Z,101480
2023-05-01T11:33:00.694Z,101490
2023-05-01T11:34:00.889Z,101490
2023-05-01T11:35:00.744Z,101490
2023-05-01T11:36:01.262Z,101490
2023-05-01T11:37:00.578Z,101490
2023-05-01T11:38:00.592Z,101480
2023-05-01T11:39:00.556Z,101490
2023-05-01T11:40:02.705Z,101490
2023-05-01T11:41:01.494Z,101480
2023-05-01T11:42:05.464Z,101480
2023-05-01T11:43:02.707Z,101480
2023-05-01T11:44:00.583Z,101480
2023-05-01T11:45:08.363Z,101480
2023-05-01T11:46:00.586Z,101480
2023-05-01T11:47:00.531Z,101480
2023-05-01T11:48:03.507Z,101480
2023-05-01T11:49:00.991Z,101480
2023-05-01T11:50:01.001Z,101480
2023-05-01T11:51:10.436Z,101470
2023-05-01T11:52:00.559Z,101470
2023-05-01T11:53:01.122Z,101470
2023-05-01T11:54:03.934Z,101470
2023-05-01T11:55:01.243Z,101470
2023-05-01T11:56:00.532Z,101480
2023-05-01T11:57:01.221Z,101480
2023-05-01T11:58:00.866Z,101480
2023-05-01T11:59:10.386Z,101470
2023-05-01T12:00:00.571Z,101480
2023-05-01T12:01:00.571Z,101470
2023-05-01T12:02:00.633Z,101470
2023-05-01T12:03:02.008Z,101470
2023-05-01T12:04:01.031Z,101470
2023-05-01T12:05:10.399Z,101480
2023-05-01T12:06:00.657Z,101480
2023-05-01T12:07:00.571Z,101480
2023-05-01T12:08:07.887Z,101480
2023-05-01T12:09:00.659Z,101490
2023-05-01T12:10:00.841Z,101490
2023-05-01T12:11:00.695Z,101480
2023-05-01T12:12:00.706Z,101480
2023-05-01T12:13:02.822Z,101480
2023-05-01T12:14:00.856Z,101480
2023-05-01T12:15:00.934Z,101490
2023-05-01T12:16:00.815Z,101490
2023-05-01T12:17:00.796Z,101490
2023-05-01T12:18:00.733Z,101480
2023-05-01T12:19:01.059Z,101490
2023-05-01T12:20:00.586Z,101490
2023-05-01T12:21:00.579Z,101490
2023-05-01T12:22:04.198Z,101490
2023-05-01T12:23:01.637Z,101490
2023-05-01T12:24:07.970Z,101490
2023-05-01T12:25:00.816Z,101490
2023-05-01T12:26:00.574Z,101480
2023-05-01T12:27:00.589Z,101490
2023-05-01T12:28:01.279Z,101480